TimeEDT,TemperatureF,Dew PointF,Humidity,Sea Level PressureIn,VisibilityMPH,Wind Direction,Wind SpeedMPH,Gust SpeedMPH,PrecipitationIn,Events,Conditions,WindDirDegrees,DateUTC
12:58 AM,80.1,73.9,81,30.04,10.0,SSW,13.8,-,N/A,,Partly Cloudy,200,2013-07-11 04:58:00
1:58 AM,79.0,72.0,79,30.01,10.0,South,12.7,-,N/A,,Clear,190,2013-07-11 05:58:00
2:58 AM,79.0,73.0,82,30.00,10.0,SSW,19.6,24.2,0.00,,Mostly Cloudy,210,2013-07-11 06:58:00
3:58 AM,77.0,73.9,90,29.98,10.0,South,11.5,-,N/A,,Clear,190,2013-07-11 07:58:00
4:58 AM,77.0,73.9,90,29.97,10.0,SSW,16.1,-,N/A,,Overcast,210,2013-07-11 08:58:00
5:22 AM,77.0,75.2,94,29.97,5.0,SW,13.8,26.5,0.00,Rain,Light Rain,220,2013-07-11 09:22:00
5:52 AM,78.8,75.2,89,29.97,10.0,WSW,10.4,19.6,0.00,,Overcast,250,2013-07-11 09:52:00
5:53 AM,78.1,75.9,93,29.98,10.0,West,11.5,-,0.00,,Overcast,260,2013-07-11 09:53:00
6:58 AM,79.0,75.0,88,30.00,10.0,WSW,11.5,19.6,N/A,,Overcast,240,2013-07-11 10:58:00
7:13 AM,78.8,75.2,89,30.00,10.0,WSW,10.4,-,N/A,,Mostly Cloudy,250,2013-07-11 11:13:00
7:26 AM,78.8,75.2,89,30.00,10.0,West,10.4,-,N/A,,Scattered Clouds,260,2013-07-11 11:26:00
7:58 AM,79.0,75.9,90,30.01,10.0,WSW,8.1,-,N/A,,Mostly Cloudy,240,2013-07-11 11:58:00
8:05 AM,78.8,75.2,89,30.01,10.0,West,12.7,21.9,N/A,,Mostly Cloudy,260,2013-07-11 12:05:00
8:17 AM,77.0,73.4,89,30.01,6.0,WSW,9.2,18.4,0.01,Rain,Light Rain,250,2013-07-11 12:17:00
8:58 AM,79.0,73.9,84,30.01,10.0,WSW,10.4,-,0.02,,Mostly Cloudy,250,2013-07-11 12:58:00
9:58 AM,82.0,75.9,82,30.00,10.0,WSW,11.5,-,0.00,,Scattered Clouds,250,2013-07-11 13:58:00
10:25 AM,78.8,75.2,89,30.00,2.0,SW,10.4,20.7,0.04,Rain,Heavy Rain,220,2013-07-11 14:25:00
10:32 AM,78.8,75.2,89,30.00,3.0,SW,10.4,-,0.04,Rain,Light Rain,230,2013-07-11 14:32:00
10:58 AM,80.1,75.9,87,30.01,9.0,SW,11.5,-,0.04,,Mostly Cloudy,220,2013-07-11 14:58:00
11:58 AM,78.1,73.0,84,30.01,10.0,SSW,12.7,21.9,0.00,,Scattered Clouds,210,2013-07-11 15:58:00
12:58 PM,84.0,75.9,76,29.99,10.0,SW,12.7,-,0.00,,Clear,220,2013-07-11 16:58:00
1:58 PM,84.0,77.0,79,29.98,10.0,SSW,15.0,-,N/A,,Mostly Cloudy,210,2013-07-11 17:58:00
2:58 PM,84.9,75.9,74,29.96,10.0,SW,19.6,25.3,N/A,,Clear,220,2013-07-11 18:58:00
3:58 PM,84.0,75.0,74,29.95,10.0,SW,20.7,25.3,N/A,,Clear,220,2013-07-11 19:58:00
4:58 PM,82.9,75.0,77,29.94,10.0,SSW,19.6,25.3,N/A,,Clear,210,2013-07-11 20:58:00
5:58 PM,82.9,73.9,74,29.94,10.0,SSW,18.4,23.0,N/A,,Partly Cloudy,200,2013-07-11 21:58:00
6:58 PM,81.0,73.9,79,29.94,10.0,SSW,15.0,20.7,N/A,,Clear,200,2013-07-11 22:58:00
7:58 PM,81.0,73.9,79,29.95,10.0,SSW,13.8,-,N/A,,Scattered Clouds,210,2013-07-11 23:58:00
8:58 PM,80.1,73.9,81,29.94,10.0,SSW,13.8,-,N/A,,Partly Cloudy,210,2013-07-12 00:58:00
9:58 PM,80.1,73.9,81,29.95,10.0,SSW,13.8,-,N/A,,Partly Cloudy,210,2013-07-12 01:58:00
10:58 PM,80.1,73.9,81,29.96,10.0,SSW,12.7,-,N/A,,Partly Cloudy,200,2013-07-12 02:58:00
11:58 PM,80.1,73.9,81,29.95,10.0,SSW,13.8,-,N/A,,Partly Cloudy,210,2013-07-12 03:58:00